Time;durP1;ratioP1;P1;durP2;ratioP2;P2;SDS_P1;SDS_P2;PMS_P1;PMS_P2;Temp;Humidity;BMP_temperature;BMP_pressure;BME280_temperature;BME280_humidity;BME280_pressure;Samples;Min_cycle;Max_cycle;Signal;HPM_P1;HPM_P2
2023/04/06 00:01:39;;;;;;;8.65;5.53;;;;;;;6.07;61.89;100518.38;5012353;28;20107;-56
2023/04/06 00:04:06;;;;;;;9.95;5.90;;;;;;;5.98;62.21;100509.91;5021190;28;20030;-53
2023/04/06 00:06:32;;;;;;;6.95;5.30;;;;;;;6.13;61.75;100518.06;5032201;28;20029;-55
2023/04/06 00:08:58;;;;;;;7.78;5.30;;;;;;;6.25;60.84;100508.59;5033998;28;20071;-54
2023/04/06 00:11:23;;;;;;;9.68;5.68;;;;;;;6.04;61.95;100508.78;5035612;28;20122;-51
2023/04/06 00:13:49;;;;;;;10.15;5.65;;;;;;;6.00;61.45;100493.88;5034302;28;20070;-55
2023/04/06 00:16:14;;;;;;;7.28;5.88;;;;;;;5.95;62.11;100510.06;5015686;28;20042;-54
2023/04/06 00:18:40;;;;;;;8.18;5.50;;;;;;;6.03;62.18;100513.22;5019405;28;20060;-56
2023/04/06 00:21:06;;;;;;;8.13;5.45;;;;;;;6.09;61.78;100519.16;5035343;28;20061;-54
2023/04/06 00:23:31;;;;;;;8.68;6.15;;;;;;;5.91;62.36;100504.97;5035480;28;20117;-55
2023/04/06 00:25:57;;;;;;;11.05;5.82;;;;;;;5.67;63.23;100494.63;5035614;28;20048;-56
2023/04/06 00:28:25;;;;;;;7.72;6.05;;;;;;;6.14;61.61;100520.66;5022854;28;20113;-55
2023/04/06 00:30:55;;;;;;;9.90;6.13;;;;;;;6.05;61.83;100515.81;5015562;28;20345;-56
2023/04/06 00:33:21;;;;;;;8.25;5.97;;;;;;;5.93;62.17;100517.25;5015932;28;20357;-51
2023/04/06 00:35:46;;;;;;;8.63;5.90;;;;;;;5.83;62.63;100530.16;5032961;28;20033;-50
2023/04/06 00:38:12;;;;;;;6.78;4.55;;;;;;;6.00;61.80;100523.09;5035198;28;20041;-51
2023/04/06 00:40:39;;;;;;;10.27;6.25;;;;;;;5.97;62.47;100515.28;5018174;28;20045;-53
2023/04/06 00:43:05;;;;;;;10.38;5.93;;;;;;;5.77;62.75;100517.13;5035353;28;20025;-55
2023/04/06 00:45:31;;;;;;;9.60;6.28;;;;;;;5.75;63.04;100519.00;5033396;28;20064;-50
2023/04/06 00:47:57;;;;;;;8.68;6.57;;;;;;;5.65;63.46;100518.59;5035750;28;20033;-48
2023/04/06 00:50:23;;;;;;;7.82;6.07;;;;;;;5.79;63.09;100517.94;5036384;28;20056;-55
2023/04/06 00:52:48;;;;;;;12.10;6.85;;;;;;;5.87;62.71;100510.44;5018037;28;20038;-54
2023/04/06 00:55:14;;;;;;;11.20;6.15;;;;;;;5.69;63.05;100517.53;5029987;28;20086;-52
2023/04/06 00:57:39;;;;;;;11.15;6.78;;;;;;;5.65;63.67;100507.13;5034673;28;20056;-53
2023/04/06 01:00:06;;;;;;;9.88;6.68;;;;;;;5.56;63.89;100519.94;5034959;28;20021;-52
2023/04/06 01:02:31;;;;;;;9.65;6.78;;;;;;;5.83;62.79;100506.22;5035066;28;20482;-53
2023/04/06 01:04:57;;;;;;;11.00;7.38;;;;;;;5.75;63.03;100511.03;5034685;28;20030;-52
2023/04/06 01:07:22;;;;;;;13.25;7.07;;;;;;;5.59;63.35;100495.88;5034748;28;20453;-55
2023/04/06 01:09:48;;;;;;;12.07;7.30;;;;;;;5.63;63.12;100501.03;5021061;28;20112;-50
2023/04/06 01:12:13;;;;;;;10.82;6.65;;;;;;;5.60;63.65;100508.22;5014001;28;20089;-50
2023/04/06 01:14:38;;;;;;;11.75;6.82;;;;;;;5.54;63.78;100508.50;5025019;28;20448;-53
2023/04/06 01:17:04;;;;;;;8.93;7.18;;;;;;;5.41;63.94;100500.28;5034421;28;20038;-51
2023/04/06 01:19:30;;;;;;;9.52;7.20;;;;;;;5.26;64.08;100491.25;5033868;28;20025;-51
2023/04/06 01:21:55;;;;;;;9.43;7.13;;;;;;;5.63;63.68;100499.22;5034271;28;20045;-56
2023/04/06 01:24:21;;;;;;;10.18;7.50;;;;;;;5.54;63.50;100499.69;5034519;28;20099;-52
2023/04/06 01:26:47;;;;;;;13.73;7.57;;;;;;;5.40;64.32;100503.84;5033975;28;20026;-56
2023/04/06 01:29:12;;;;;;;12.23;7.53;;;;;;;5.41;64.23;100502.06;5034276;28;20122;-50
2023/04/06 01:31:39;;;;;;;11.57;6.68;;;;;;;5.50;63.66;100506.94;5034553;28;20025;-52
2023/04/06 01:34:04;;;;;;;9.95;7.15;;;;;;;5.44;64.06;100504.59;5027003;28;20045;-56
2023/04/06 01:36:30;;;;;;;9.15;7.15;;;;;;;5.32;64.50;100504.25;5013283;28;20026;-53
2023/04/06 01:38:56;;;;;;;10.20;7.30;;;;;;;5.36;64.35;100496.97;5027428;28;20163;-56
2023/04/06 01:41:21;;;;;;;9.18;6.43;;;;;;;5.37;64.24;100504.00;5034481;28;20052;-53
2023/04/06 01:43:48;;;;;;;10.43;7.50;;;;;;;5.26;64.52;100509.00;5033837;28;20026;-49
2023/04/06 01:46:14;;;;;;;10.80;7.10;;;;;;;5.27;64.28;100498.28;5033864;28;20025;-52
2023/04/06 01:48:39;;;;;;;12.98;7.35;;;;;;;5.19;64.96;100503.09;5033725;28;20406;-55
2023/04/06 01:51:05;;;;;;;10.30;7.43;;;;;;;5.18;64.62;100498.72;5033648;28;20049;-50
2023/04/06 01:53:31;;;;;;;11.63;6.97;;;;;;;5.21;64.68;100498.56;5033864;28;20432;-50
2023/04/06 01:55:56;;;;;;;13.35;7.20;;;;;;;5.37;63.84;100501.34;5027853;28;20045;-53
2023/04/06 01:58:21;;;;;;;12.30;7.70;;;;;;;5.23;64.83;100504.66;5017872;28;20049;-52
2023/04/06 02:00:47;;;;;;;9.18;7.38;;;;;;;5.29;64.32;100515.00;5033112;28;20325;-51
2023/04/06 02:03:14;;;;;;;10.88;7.43;;;;;;;5.14;65.01;100507.78;5024134;28;20453;-52
2023/04/06 02:05:39;;;;;;;10.48;6.60;;;;;;;5.03;65.03;100498.50;5013908;28;20038;-55
2023/04/06 02:08:05;;;;;;;11.93;7.45;;;;;;;5.09;64.52;100505.31;5013806;28;20096;-54
2023/04/06 02:10:32;;;;;;;12.63;7.28;;;;;;;5.07;64.96;100504.53;5013524;28;20496;-52
2023/04/06 02:12:57;;;;;;;10.75;7.45;;;;;;;5.11;64.71;100507.91;5013905;28;20040;-54
2023/04/06 02:15:23;;;;;;;10.07;6.43;;;;;;;5.00;64.67;100506.63;5027235;28;20029;-56
2023/04/06 02:17:48;;;;;;;11.32;7.38;;;;;;;4.93;65.43;100512.28;5013243;28;20848;-59
2023/04/06 02:20:14;;;;;;;13.27;7.80;;;;;;;4.90;66.17;100510.63;5013838;28;20501;-53
2023/04/06 02:22:39;;;;;;;10.32;7.25;;;;;;;4.94;65.15;100512.22;5013732;28;20037;-51
2023/04/06 02:25:05;;;;;;;11.27;7.32;;;;;;;4.94;65.19;100521.94;5012281;28;20029;-53
2023/04/06 02:27:31;;;;;;;12.23;6.55;;;;;;;5.25;64.16;100526.69;4996023;28;20392;-54
2023/04/06 02:29:56;;;;;;;12.95;6.72;;;;;;;5.32;63.96;100524.63;5013928;28;20049;-57
2023/04/06 02:32:22;;;;;;;12.25;7.82;;;;;;;5.03;64.79;100522.38;5012516;28;20080;-55
2023/04/06 02:34:47;;;;;;;8.82;6.60;;;;;;;5.09;64.33;100523.06;5013294;28;20046;-54
2023/04/06 02:37:12;;;;;;;11.65;6.95;;;;;;;5.04;64.45;100517.97;5013229;28;20041;-58
2023/04/06 02:39:38;;;;;;;12.18;7.22;;;;;;;4.54;64.45;100442.41;5017888;28;20033;-55
2023/04/06 02:42:03;;;;;;;8.57;6.90;;;;;;;4.87;65.58;100534.66;5021583;28;20084;-53
2023/04/06 02:44:29;;;;;;;10.40;7.22;;;;;;;4.90;65.43;100529.22;5033275;28;20029;-60
2023/04/06 02:46:54;;;;;;;10.55;7.32;;;;;;;5.29;63.89;100536.22;5033354;28;20113;-52
2023/04/06 02:49:20;;;;;;;10.30;6.50;;;;;;;4.96;64.29;100530.72;5033000;28;20033;-51
2023/04/06 02:51:45;;;;;;;14.65;6.72;;;;;;;5.01;64.52;100534.03;5032854;28;20356;-48
2023/04/06 02:54:11;;;;;;;11.48;7.15;;;;;;;4.88;64.88;100539.88;5032782;28;20048;-51
2023/04/06 02:56:36;;;;;;;10.80;6.47;;;;;;;4.91;64.23;100507.06;5031048;28;20025;-55
2023/04/06 02:59:02;;;;;;;9.13;7.05;;;;;;;4.84;64.03;100508.28;5032602;28;20116;-55
2023/04/06 03:01:27;;;;;;;11.70;6.43;;;;;;;5.05;64.21;100542.69;5033034;28;20436;-57
2023/04/06 03:03:52;;;;;;;9.52;6.53;;;;;;;4.91;65.10;100545.97;5031761;28;20067;-52
2023/04/06 03:06:18;;;;;;;9.23;6.25;;;;;;;5.11;64.15;100555.69;5032411;28;20360;-56
2023/04/06 03:08:43;;;;;;;13.10;6.55;;;;;;;5.39;63.19;100549.09;5032684;28;20025;-51
2023/04/06 03:11:09;;;;;;;7.68;6.10;;;;;;;5.28;63.61;100550.44;5032451;28;20029;-49
2023/04/06 03:13:38;;;;;;;9.88;6.32;;;;;;;5.16;63.66;100556.34;5025960;28;20034;-51
2023/04/06 03:16:04;;;;;;;5.60;4.60;;;;;;;5.40;63.03;100558.78;5012917;28;20368;-52
2023/04/06 03:18:30;;;;;;;6.78;4.80;;;;;;;5.65;61.36;100544.31;5013266;28;20524;-54
2023/04/06 03:20:55;;;;;;;9.43;6.10;;;;;;;5.42;62.38;100559.56;5012797;28;20109;-52
2023/04/06 03:23:21;;;;;;;13.30;6.72;;;;;;;5.34;63.26;100564.38;5012875;28;20189;-52
2023/04/06 03:25:46;;;;;;;10.25;5.93;;;;;;;5.47;63.11;100565.50;5012958;28;20034;-51
2023/04/06 03:28:12;;;;;;;7.22;5.68;;;;;;;5.86;61.67;100561.88;5020847;28;20033;-52
2023/04/06 03:30:37;;;;;;;16.52;5.90;;;;;;;6.27;60.34;100538.63;5032590;28;20033;-51
2023/04/06 03:33:03;;;;;;;7.50;5.88;;;;;;;6.97;58.82;100549.16;5032445;28;20032;-53
2023/04/06 03:35:28;;;;;;;9.68;5.90;;;;;;;7.70;56.16;100573.63;5032834;28;20041;-50
2023/04/06 03:37:53;;;;;;;10.77;6.07;;;;;;;8.14;54.58;100572.88;5016871;28;20459;-52
2023/04/06 03:40:19;;;;;;;8.68;4.55;;;;;;;8.71;52.90;100574.00;5012513;28;20052;-51
2023/04/06 03:42:44;;;;;;;8.88;4.22;;;;;;;9.04;52.04;100564.00;5012785;28;20037;-50
2023/04/06 03:45:10;;;;;;;7.95;5.57;;;;;;;9.28;51.11;100560.72;5016367;28;20033;-54
2023/04/06 03:47:35;;;;;;;8.20;5.30;;;;;;;9.86;49.69;100572.16;5016306;28;20025;-56
2023/04/06 03:50:02;;;;;;;11.70;5.88;;;;;;;10.20;48.42;100580.63;5016492;28;20048;-56
2023/04/06 03:52:29;;;;;;;7.30;4.25;;;;;;;10.90;46.46;100567.88;5030236;28;20037;-54
2023/04/06 03:54:54;;;;;;;7.43;4.90;;;;;;;11.36;45.00;100578.13;5036192;28;20479;-54
2023/04/06 03:57:20;;;;;;;5.82;4.47;;;;;;;11.75;43.94;100585.09;5024071;28;20030;-52
2023/04/06 03:59:45;;;;;;;8.00;4.93;;;;;;;11.69;43.94;100576.63;5016012;28;20037;-55
2023/04/06 04:02:11;;;;;;;8.93;5.30;;;;;;;11.86;43.60;100587.00;5016100;28;20422;-54
2023/04/06 04:04:36;;;;;;;6.28;4.82;;;;;;;12.16;42.69;100587.50;5026426;28;20112;-55
2023/04/06 04:07:01;;;;;;;9.50;5.07;;;;;;;12.96;42.02;100587.75;5044934;28;20165;-53
2023/04/06 04:09:27;;;;;;;7.72;4.70;;;;;;;13.45;40.28;100580.28;5045406;28;20029;-56
2023/04/06 04:11:52;;;;;;;8.50;4.72;;;;;;;13.99;38.99;100580.44;5043724;28;20391;-54
2023/04/06 04:14:18;;;;;;;8.02;4.82;;;;;;;14.23;38.33;100588.28;5045105;28;20325;-54
2023/04/06 04:16:43;;;;;;;7.97;4.55;;;;;;;14.87;37.24;100580.25;5045754;28;20368;-55
2023/04/06 04:19:09;;;;;;;11.00;4.95;;;;;;;15.78;35.85;100592.94;5043847;28;20032;-52
2023/04/06 04:21:42;;;;;;;8.02;4.47;;;;;;;16.80;34.58;100596.25;5045302;28;20021;-57
2023/04/06 04:24:08;;;;;;;8.88;4.72;;;;;;;17.42;32.46;100566.00;5043082;28;20074;-57
2023/04/06 04:26:33;;;;;;;9.05;4.40;;;;;;;17.78;31.64;100584.19;5044753;28;20033;-55
2023/04/06 04:28:59;;;;;;;9.13;4.70;;;;;;;17.99;31.13;100588.47;5031480;28;20510;-55
2023/04/06 04:31:24;;;;;;;8.32;4.35;;;;;;;18.69;30.07;100576.91;5024330;28;20026;-55
2023/04/06 04:33:50;;;;;;;9.18;4.30;;;;;;;19.46;29.05;100580.72;5026705;28;20061;-51
2023/04/06 04:36:15;;;;;;;9.57;3.65;;;;;;;20.04;27.36;100591.81;5024324;28;20458;-55
2023/04/06 04:38:41;;;;;;;5.45;4.30;;;;;;;19.08;28.28;100590.06;5036464;28;20142;-57
2023/04/06 04:41:06;;;;;;;5.40;4.90;;;;;;;18.76;28.66;100601.53;5043319;28;20036;-58
2023/04/06 04:43:32;;;;;;;6.20;4.72;;;;;;;18.90;29.27;100586.53;5045797;28;20025;-54
2023/04/06 04:45:58;;;;;;;8.32;4.50;;;;;;;19.46;28.01;100599.75;5045037;28;20037;-55
2023/04/06 04:48:24;;;;;;;6.63;4.63;;;;;;;20.35;26.89;100597.44;5048936;28;20427;-55
2023/04/06 04:50:49;;;;;;;8.02;4.68;;;;;;;20.94;25.98;100599.13;5054684;28;20053;-53
2023/04/06 04:53:15;;;;;;;9.57;4.75;;;;;;;21.40;25.19;100591.31;5053368;28;20032;-54
2023/04/06 04:55:40;;;;;;;11.27;4.75;;;;;;;21.72;24.45;100581.34;5033364;28;20034;-55
2023/04/06 04:58:06;;;;;;;6.65;4.47;;;;;;;21.61;24.65;100590.75;5035086;28;20029;-57
2023/04/06 05:00:31;;;;;;;5.78;4.43;;;;;;;22.01;23.67;100586.09;5034852;28;20068;-54
2023/04/06 05:02:57;;;;;;;5.72;4.05;;;;;;;22.56;23.49;100596.13;5032497;28;20368;-55
2023/04/06 05:05:22;;;;;;;8.63;4.35;;;;;;;22.14;23.13;100596.41;5015039;28;20156;-58
2023/04/06 05:07:48;;;;;;;7.25;4.57;;;;;;;22.29;23.52;100598.34;5037739;28;20067;-58
2023/04/06 05:10:13;;;;;;;9.85;4.25;;;;;;;23.53;21.98;100593.59;5054454;28;20108;-56
2023/04/06 05:12:39;;;;;;;10.45;4.45;;;;;;;24.69;21.00;100595.44;5054687;28;20375;-57
2023/04/06 05:15:05;;;;;;;10.45;4.40;;;;;;;25.25;20.36;100574.53;5037569;28;20510;-52
2023/04/06 05:17:31;;;;;;;8.45;3.75;;;;;;;26.15;19.19;100594.69;5034312;28;20041;-57
2023/04/06 05:19:56;;;;;;;9.10;4.43;;;;;;;25.16;19.87;100597.66;5034218;28;20037;-59
2023/04/06 05:22:22;;;;;;;14.50;4.40;;;;;;;24.96;19.98;100606.59;5034483;28;20092;-58
2023/04/06 05:24:47;;;;;;;5.93;4.00;;;;;;;25.69;19.55;100612.72;5018051;28;20030;-59
2023/04/06 05:27:13;;;;;;;8.63;4.40;;;;;;;26.18;18.98;100589.66;5014388;28;20030;-57
2023/04/06 05:29:38;;;;;;;6.32;4.38;;;;;;;27.35;18.16;100599.31;5014695;28;20115;-58
2023/04/06 05:32:04;;;;;;;6.75;4.20;;;;;;;27.99;16.91;100592.31;5014581;28;20070;-56
2023/04/06 05:34:29;;;;;;;7.82;3.97;;;;;;;28.28;16.82;100588.09;5014429;28;20056;-54
2023/04/06 05:36:55;;;;;;;6.40;3.75;;;;;;;29.33;15.93;100596.66;5014131;28;20448;-55
2023/04/06 05:39:20;;;;;;;10.07;4.07;;;;;;;27.94;16.39;100596.53;5014080;28;20057;-57
2023/04/06 05:41:46;;;;;;;8.57;4.15;;;;;;;26.57;17.56;100587.16;5014214;28;20069;-58
2023/04/06 05:44:11;;;;;;;6.18;3.90;;;;;;;26.73;17.93;100596.03;5024643;28;20029;-57
2023/04/06 05:46:36;;;;;;;8.55;3.42;;;;;;;28.02;17.00;100598.19;5033927;28;20140;-54
2023/04/06 05:49:02;;;;;;;8.95;4.00;;;;;;;29.33;15.40;100595.84;5015320;28;20022;-57
2023/04/06 05:51:27;;;;;;;7.75;3.95;;;;;;;30.35;15.09;100587.91;5013067;28;20377;-57
2023/04/06 05:53:53;;;;;;;9.77;3.95;;;;;;;30.75;14.64;100595.53;5013842;28;20042;-55
2023/04/06 05:56:18;;;;;;;11.02;4.43;;;;;;;31.28;13.88;100584.59;5013843;28;20365;-58
2023/04/06 05:58:44;;;;;;;3.92;3.28;;;;;;;31.52;14.06;100592.81;5014007;28;20306;-57
2023/04/06 06:01:09;;;;;;;4.97;3.90;;;;;;;31.66;13.62;100593.38;5013960;28;20107;-56
2023/04/06 06:03:35;;;;;;;8.10;3.88;;;;;;;32.34;12.94;100593.56;5023336;28;20463;-52
2023/04/06 06:06:04;;;;;;;5.72;3.95;;;;;;;30.65;14.21;100585.09;5013705;28;20438;-57
2023/04/06 06:08:30;;;;;;;12.80;3.88;;;;;;;31.36;13.77;100589.75;5013876;28;20045;-60
2023/04/06 06:10:56;;;;;;;12.52;3.83;;;;;;;32.37;13.11;100581.16;5014569;28;20033;-59
2023/04/06 06:13:23;;;;;;;9.27;3.88;;;;;;;33.24;12.42;100578.00;5033592;28;20029;-55
2023/04/06 06:15:48;;;;;;;13.40;3.95;;;;;;;33.82;11.98;100587.88;5033339;28;20163;-55
2023/04/06 06:18:14;;;;;;;10.60;4.18;;;;;;;33.44;11.95;100571.06;5033200;28;20121;-54
2023/04/06 06:20:39;;;;;;;8.30;4.30;;;;;;;33.49;12.02;100583.09;5033711;28;20074;-59
2023/04/06 06:23:05;;;;;;;6.93;3.80;;;;;;;34.24;11.60;100590.00;5038082;28;20029;-58
2023/04/06 06:25:30;;;;;;;7.93;4.45;;;;;;;35.10;10.87;100576.19;5042888;28;20036;-55
2023/04/06 06:27:56;;;;;;;9.98;4.30;;;;;;;35.37;10.66;100579.91;5041868;28;20029;-53
2023/04/06 06:30:22;;;;;;;10.68;4.65;;;;;;;35.54;10.51;100583.34;5041943;28;20439;-56
2023/04/06 06:32:48;;;;;;;8.52;3.83;;;;;;;35.95;10.52;100582.59;5041822;28;20107;-53
2023/04/06 06:35:13;;;;;;;6.93;3.75;;;;;;;36.68;9.90;100574.28;5041606;28;20345;-58
2023/04/06 06:37:39;;;;;;;13.88;4.60;;;;;;;36.94;9.76;100566.72;5041093;28;20029;-52
2023/04/06 06:40:05;;;;;;;13.23;4.50;;;;;;;37.29;9.35;100573.31;5042902;28;20032;-55
2023/04/06 06:42:31;;;;;;;12.65;4.47;;;;;;;36.85;9.10;100576.75;5033008;28;20033;-60
2023/04/06 06:44:57;;;;;;;10.52;4.38;;;;;;;36.80;9.53;100574.00;5030157;28;20038;-62
2023/04/06 06:47:23;;;;;;;14.85;5.15;;;;;;;36.88;9.86;100571.47;5043210;28;20029;-60
2023/04/06 06:49:48;;;;;;;15.32;5.22;;;;;;;36.82;9.41;100566.19;5041860;28;20059;-61
2023/04/06 06:52:14;;;;;;;9.32;4.95;;;;;;;37.13;9.87;100574.47;5042574;28;20376;-61
2023/04/06 06:54:39;;;;;;;12.05;5.13;;;;;;;37.43;9.37;100556.75;5041133;28;20033;-62
2023/04/06 06:57:05;;;;;;;14.55;4.53;;;;;;;37.71;9.31;100570.31;5041917;28;20424;-60
2023/04/06 06:59:31;;;;;;;12.68;5.10;;;;;;;37.98;8.53;100569.06;5041092;28;20022;-61
2023/04/06 07:01:56;;;;;;;14.57;4.80;;;;;;;38.47;8.89;100565.31;5040226;28;20157;-61
2023/04/06 07:04:21;;;;;;;15.02;4.65;;;;;;;38.74;8.27;100563.09;5036135;28;20029;-62
2023/04/06 07:06:47;;;;;;;16.20;4.70;;;;;;;38.85;8.02;100564.63;5041686;28;20094;-69
2023/04/06 07:09:12;;;;;;;13.05;4.93;;;;;;;39.25;8.16;100556.06;5036886;28;20049;-69
2023/04/06 07:11:38;;;;;;;15.30;5.38;;;;;;;39.45;8.19;100563.41;5029708;28;20127;-62
2023/04/06 07:14:04;;;;;;;12.38;4.90;;;;;;;39.69;7.75;100565.31;5037830;28;20041;-64
2023/04/06 07:16:30;;;;;;;12.85;5.10;;;;;;;40.04;7.74;100565.09;5042106;28;20021;-65
2023/04/06 07:18:55;;;;;;;13.40;5.00;;;;;;;40.12;7.50;100550.34;5042592;28;20035;-65
2023/04/06 07:21:21;;;;;;;8.63;4.72;;;;;;;40.33;7.62;100564.88;5043872;28;20025;-62
2023/04/06 07:23:47;;;;;;;16.92;4.97;;;;;;;40.03;7.57;100564.22;5045531;28;20025;-61
2023/04/06 07:26:13;;;;;;;18.40;4.82;;;;;;;40.25;7.74;100570.31;5044392;28;20360;-60
2023/04/06 07:28:39;;;;;;;14.13;4.70;;;;;;;40.92;6.99;100569.13;5045961;28;20029;-62
2023/04/06 07:31:05;;;;;;;9.25;4.70;;;;;;;40.64;7.28;100566.28;5043471;28;21273;-62
2023/04/06 07:33:30;;;;;;;12.32;4.32;;;;;;;39.88;7.68;100556.06;5041019;28;20419;-62
2023/04/06 07:35:57;;;;;;;8.70;4.28;;;;;;;39.32;8.05;100558.50;5044912;28;20040;-62
2023/04/06 07:38:22;;;;;;;12.20;4.53;;;;;;;39.14;7.43;100562.94;5039125;28;20021;-61
2023/04/06 07:40:48;;;;;;;12.98;4.10;;;;;;;38.44;7.92;100560.31;5042177;28;20033;-62
2023/04/06 07:43:13;;;;;;;12.27;4.00;;;;;;;37.97;8.54;100554.22;5041758;28;20037;-59
2023/04/06 07:45:39;;;;;;;11.48;4.40;;;;;;;36.88;8.62;100556.66;5043241;28;20025;-61
2023/04/06 07:48:04;;;;;;;10.98;3.78;;;;;;;36.31;9.28;100556.75;5044071;28;20037;-60
2023/04/06 07:50:30;;;;;;;13.55;4.03;;;;;;;35.96;9.56;100555.59;5044371;28;20044;-63
2023/04/06 07:52:55;;;;;;;16.27;4.00;;;;;;;36.00;9.45;100542.78;5043717;28;20029;-62
2023/04/06 07:55:21;;;;;;;7.60;3.90;;;;;;;36.25;9.71;100555.06;5049318;28;20120;-61
2023/04/06 07:57:46;;;;;;;6.75;3.45;;;;;;;36.31;9.59;100556.75;5044115;28;20037;-61
2023/04/06 08:00:12;;;;;;;9.70;3.88;;;;;;;35.03;9.98;100567.25;5042544;28;20025;-60
2023/04/06 08:02:38;;;;;;;16.23;3.50;;;;;;;32.71;11.66;100547.03;5043003;28;20028;-62
2023/04/06 08:05:04;;;;;;;11.85;4.10;;;;;;;31.86;12.86;100548.69;5044439;28;20189;-59
2023/04/06 08:07:29;;;;;;;12.23;3.70;;;;;;;30.08;13.83;100546.91;5042788;28;20124;-63
2023/04/06 08:09:55;;;;;;;5.45;3.78;;;;;;;27.96;15.57;100560.56;5042598;28;20449;-63
2023/04/06 08:12:20;;;;;;;10.02;3.58;;;;;;;25.56;17.62;100543.09;5041829;28;20712;-59
2023/04/06 08:14:46;;;;;;;10.88;3.50;;;;;;;23.07;20.12;100544.41;5039525;28;20033;-59
2023/04/06 08:17:11;;;;;;;9.68;2.97;;;;;;;20.99;22.16;100538.72;5043134;28;20131;-61
2023/04/06 08:19:37;;;;;;;9.80;3.15;;;;;;;19.94;24.24;100543.88;5042017;28;20112;-62
2023/04/06 08:22:02;;;;;;;10.60;3.47;;;;;;;19.14;25.10;100549.72;5041798;28;20120;-61
2023/04/06 08:24:28;;;;;;;6.72;2.67;;;;;;;18.78;25.14;100551.50;5037046;28;20702;-56
2023/04/06 08:26:53;;;;;;;8.50;2.95;;;;;;;17.98;26.10;100538.00;5034753;28;20045;-58
2023/04/06 08:29:19;;;;;;;6.90;2.78;;;;;;;17.57;27.22;100547.38;5020007;28;20029;-57
2023/04/06 08:31:44;;;;;;;5.90;2.83;;;;;;;17.33;27.32;100553.38;5023807;28;20026;-57
2023/04/06 08:34:10;;;;;;;11.00;3.15;;;;;;;16.90;28.25;100550.25;5034317;28;20047;-59
2023/04/06 08:36:35;;;;;;;8.02;3.13;;;;;;;16.78;28.76;100557.69;5026009;28;20042;-57
2023/04/06 08:39:01;;;;;;;11.48;3.20;;;;;;;16.46;29.23;100546.22;5017335;28;20116;-57
2023/04/06 08:41:27;;;;;;;7.47;3.08;;;;;;;16.26;29.58;100552.66;5018156;28;20048;-62
2023/04/06 08:43:57;;;;;;;13.85;4.25;;;;;;;16.34;29.53;100552.78;5031676;28;20056;-59
2023/04/06 08:46:30;;;;;;;18.67;3.60;;;;;;;16.08;29.97;100550.66;5029487;28;20033;-57
2023/04/06 08:49:00;;;;;;;8.90;3.05;;;;;;;16.07;29.82;100548.94;5040838;28;20025;-61
2023/04/06 08:51:27;;;;;;;6.60;3.20;;;;;;;16.04;30.21;100550.09;5036724;28;20428;-57
2023/04/06 08:53:57;;;;;;;9.15;2.85;;;;;;;16.13;30.10;100542.97;5038731;28;20080;-58
2023/04/06 08:56:24;;;;;;;9.48;2.70;;;;;;;16.19;29.61;100542.41;5029334;28;20029;-61
2023/04/06 08:58:50;;;;;;;10.43;3.10;;;;;;;16.16;29.92;100549.94;5018810;28;20402;-55
2023/04/06 09:01:20;;;;;;;7.82;2.80;;;;;;;15.86;30.44;100552.59;5031015;28;20428;-56
2023/04/06 09:03:46;;;;;;;11.70;3.08;;;;;;;15.89;30.30;100543.41;5037633;28;20055;-59
2023/04/06 09:06:13;;;;;;;10.10;2.83;;;;;;;15.77;30.56;100554.28;5039282;28;20356;-60
2023/04/06 09:08:40;;;;;;;10.02;3.10;;;;;;;15.88;30.37;100542.53;5040632;28;20040;-59
2023/04/06 09:11:06;;;;;;;9.35;2.63;;;;;;;15.86;30.01;100536.41;5034427;28;20056;-57
2023/04/06 09:13:44;;;;;;;13.35;3.00;;;;;;;15.96;30.14;100547.25;5020541;28;20064;-60
2023/04/06 09:16:09;;;;;;;10.48;3.03;;;;;;;15.92;30.35;100545.81;5022013;28;20052;-56
2023/04/06 09:18:35;;;;;;;16.05;2.95;;;;;;;16.13;29.74;100553.78;5020733;28;20132;-56
2023/04/06 09:21:02;;;;;;;12.35;3.60;;;;;;;15.93;30.00;100547.53;5014475;28;20109;-60
2023/04/06 09:23:28;;;;;;;9.20;2.70;;;;;;;15.78;30.20;100547.06;5036701;28;20029;-59
2023/04/06 09:26:10;;;;;;;10.65;2.90;;;;;;;15.95;29.51;100550.09;5043127;28;20029;-60
2023/04/06 09:28:52;;;;;;;10.55;3.20;;;;;;;15.56;30.46;100535.50;5038640;28;20035;-58
2023/04/06 09:31:26;;;;;;;8.65;2.70;;;;;;;15.49;30.30;100550.56;5040904;28;20025;-59
2023/04/06 09:33:53;;;;;;;7.40;2.80;;;;;;;15.26;30.88;100568.78;5032144;28;20048;-59
2023/04/06 09:36:18;;;;;;;10.05;3.22;;;;;;;14.98;31.27;100542.44;5032125;28;20037;-52
2023/04/06 09:38:51;;;;;;;13.80;3.75;;;;;;;14.96;31.05;100538.16;5028029;28;20042;-56
2023/04/06 09:41:28;;;;;;;9.73;2.85;;;;;;;15.18;30.97;100534.41;5013012;28;20054;-57
2023/04/06 09:44:07;;;;;;;14.43;2.58;;;;;;;15.23;31.04;100539.41;5011585;28;20061;-56
2023/04/06 09:46:37;;;;;;;15.27;2.97;;;;;;;15.25;30.61;100542.81;5013645;28;20048;-58
2023/04/06 09:49:03;;;;;;;7.07;2.45;;;;;;;15.16;30.75;100549.88;5013790;28;20026;-55
2023/04/06 09:51:41;;;;;;;12.00;2.97;;;;;;;15.11;30.97;100542.22;5013563;28;20351;-56
2023/04/06 09:54:09;;;;;;;9.57;2.75;;;;;;;15.18;30.36;100535.28;5013833;28;20448;-58
2023/04/06 09:56:45;;;;;;;9.07;2.58;;;;;;;15.50;29.86;100541.47;5013936;28;20097;-57
2023/04/06 09:59:18;;;;;;;10.15;3.17;;;;;;;15.19;30.08;100525.31;5013682;28;20040;-59
2023/04/06 10:01:46;;;;;;;10.40;3.05;;;;;;;15.16;30.46;100523.75;5014179;28;20030;-59
2023/04/06 10:04:34;;;;;;;13.68;2.92;;;;;;;15.25;30.47;100532.00;5014041;28;20030;-57
2023/04/06 10:07:01;;;;;;;5.63;2.83;;;;;;;15.50;29.52;100533.38;5012959;28;20041;-53
2023/04/06 10:09:35;;;;;;;5.43;2.80;;;;;;;15.57;29.98;100542.63;5014183;28;20025;-53
2023/04/06 10:12:05;;;;;;;11.88;2.67;;;;;;;15.50;29.70;100522.59;5012782;28;20411;-57
2023/04/06 10:14:36;;;;;;;6.85;2.90;;;;;;;15.39;30.53;100536.16;5013153;28;20029;-56
2023/04/06 10:17:05;;;;;;;8.35;2.55;;;;;;;15.44;30.04;100532.06;5013489;28;20037;-54
2023/04/06 10:19:49;;;;;;;12.23;3.15;;;;;;;15.75;29.57;100537.38;5013714;28;20121;-54
2023/04/06 10:22:23;;;;;;;6.53;2.70;;;;;;;15.54;29.78;100523.13;5030726;28;20030;-57
2023/04/06 10:24:49;;;;;;;9.65;2.80;;;;;;;15.56;29.71;100521.19;5033126;28;20433;-57
2023/04/06 10:27:14;;;;;;;9.30;2.97;;;;;;;15.61;30.02;100530.53;5032862;28;20059;-55
2023/04/06 10:29:48;;;;;;;10.18;3.65;;;;;;;15.69;29.58;100535.25;5028111;28;20029;-57
2023/04/06 10:32:14;;;;;;;8.63;2.90;;;;;;;15.71;29.12;100516.22;5013417;28;20026;-56
2023/04/06 10:34:39;;;;;;;6.93;2.90;;;;;;;15.58;29.22;100514.63;5013110;28;20229;-54
2023/04/06 10:37:14;;;;;;;12.65;3.13;;;;;;;15.31;29.77;100526.94;5012169;28;20033;-52
2023/04/06 10:39:57;;;;;;;8.60;2.58;;;;;;;15.30;29.80;100517.13;5013378;28;20033;-57
2023/04/06 10:42:38;;;;;;;8.10;3.17;;;;;;;15.38;30.20;100537.16;5012960;28;20034;-59
2023/04/06 10:45:18;;;;;;;11.77;3.00;;;;;;;15.41;29.77;100531.50;5012683;28;20056;-58
2023/04/06 10:47:44;;;;;;;9.07;2.90;;;;;;;15.52;29.63;100531.38;5012835;28;20065;-55
2023/04/06 10:50:14;;;;;;;5.47;2.33;;;;;;;15.63;29.21;100531.25;5012273;28;20065;-53
2023/04/06 10:52:40;;;;;;;10.65;2.80;;;;;;;15.48;30.01;100516.47;5012021;28;20049;-57
2023/04/06 10:55:08;;;;;;;12.18;3.00;;;;;;;15.32;30.00;100523.25;5012847;28;20034;-58
2023/04/06 10:57:34;;;;;;;9.50;2.85;;;;;;;15.40;30.15;100524.38;5020544;28;20064;-55
2023/04/06 10:59:59;;;;;;;9.15;3.30;;;;;;;15.47;29.84;100520.16;5031660;28;20444;-53
2023/04/06 11:02:25;;;;;;;9.00;2.85;;;;;;;15.55;29.95;100535.63;5031831;28;20025;-56
2023/04/06 11:04:58;;;;;;;9.30;3.05;;;;;;;15.67;29.56;100520.16;5037419;28;20352;-57
2023/04/06 11:07:27;;;;;;;10.10;3.13;;;;;;;15.25;29.96;100491.56;5039795;28;20364;-56
2023/04/06 11:09:53;;;;;;;9.10;3.03;;;;;;;15.09;30.46;100495.66;5027708;28;20044;-54
2023/04/06 11:12:27;;;;;;;10.02;2.90;;;;;;;15.45;30.04;100523.00;5038272;28;20041;-55
2023/04/06 11:15:06;;;;;;;5.60;2.83;;;;;;;15.50;29.92;100520.72;5029817;28;20167;-59
2023/04/06 11:17:37;;;;;;;13.65;2.90;;;;;;;15.51;30.01;100516.19;5020429;28;20038;-58
2023/04/06 11:20:04;;;;;;;7.93;2.92;;;;;;;15.62;29.56;100528.72;5032868;28;20460;-58
2023/04/06 11:22:31;;;;;;;6.55;2.70;;;;;;;15.57;29.26;100542.63;5039962;28;20049;-52